sensor_id;sensor_type;location;lat;lon;timestamp;pressure;altitude;pressure_sealevel;temperature;humidity
62849;BME280;48941;49.516;8.286;2023-02-10T00:00:04;102342.03;;;-2.18;86.53
62849;BME280;48941;49.516;8.286;2023-02-10T00:02:32;102342.06;;;-2.15;86.17
62849;BME280;48941;49.516;8.286;2023-02-10T00:05:00;102352.53;;;-2.10;86.31
62849;BME280;48941;49.516;8.286;2023-02-10T00:07:28;102352.53;;;-2.07;85.98
62849;BME280;48941;49.516;8.286;2023-02-10T00:09:57;102356.00;;;-2.08;84.85
62849;BME280;48941;49.516;8.286;2023-02-10T00:12:25;102352.53;;;-2.13;84.45
62849;BME280;48941;49.516;8.286;2023-02-10T00:14:52;102348.16;;;-2.13;85.00
62849;BME280;48941;49.516;8.286;2023-02-10T00:17:20;102346.44;;;-2.11;85.58
62849;BME280;48941;49.516;8.286;2023-02-10T00:19:48;102349.91;;;-2.10;85.29
62849;BME280;48941;49.516;8.286;2023-02-10T00:22:16;102356.00;;;-2.11;85.45
62849;BME280;48941;49.516;8.286;2023-02-10T00:24:44;102357.72;;;-2.16;84.96
62849;BME280;48941;49.516;8.286;2023-02-10T00:27:13;102357.72;;;-2.19;84.31
62849;BME280;48941;49.516;8.286;2023-02-10T00:29:41;102366.41;;;-2.25;84.04
62849;BME280;48941;49.516;8.286;2023-02-10T00:32:09;102378.53;;;-2.30;83.62
62849;BME280;48941;49.516;8.286;2023-02-10T00:34:37;102382.84;;;-2.40;83.91
62849;BME280;48941;49.516;8.286;2023-02-10T00:37:05;102375.84;;;-2.46;84.60
62849;BME280;48941;49.516;8.286;2023-02-10T00:39:33;102373.22;;;-2.50;84.85
62849;BME280;48941;49.516;8.286;2023-02-10T00:42:00;102362.78;;;-2.53;85.32
62849;BME280;48941;49.516;8.286;2023-02-10T00:44:29;102361.00;;;-2.56;85.54
62849;BME280;48941;49.516;8.286;2023-02-10T00:46:57;102380.13;;;-2.58;84.58
62849;BME280;48941;49.516;8.286;2023-02-10T00:49:25;102380.97;;;-2.63;84.14
62849;BME280;48941;49.516;8.286;2023-02-10T00:51:53;102390.50;;;-2.69;84.36
62849;BME280;48941;49.516;8.286;2023-02-10T00:54:21;102395.66;;;-2.74;84.37
62849;BME280;48941;49.516;8.286;2023-02-10T00:56:48;102406.94;;;-2.81;85.06
62849;BME280;48941;49.516;8.286;2023-02-10T00:59:17;102397.34;;;-2.84;85.15
62849;BME280;48941;49.516;8.286;2023-02-10T01:01:47;102404.28;;;-2.87;85.83
62849;BME280;48941;49.516;8.286;2023-02-10T01:04:15;102410.31;;;-2.93;85.79
62849;BME280;48941;49.516;8.286;2023-02-10T01:06:43;102410.25;;;-3.01;85.87
62849;BME280;48941;49.516;8.286;2023-02-10T01:09:11;102421.53;;;-3.02;86.06
62849;BME280;48941;49.516;8.286;2023-02-10T01:11:38;102425.88;;;-3.05;86.68
62849;BME280;48941;49.516;8.286;2023-02-10T01:14:06;102432.81;;;-3.07;86.83
62849;BME280;48941;49.516;8.286;2023-02-10T01:16:34;102434.47;;;-3.15;87.47
62849;BME280;48941;49.516;8.286;2023-02-10T01:19:03;102429.16;;;-3.22;87.72
62849;BME280;48941;49.516;8.286;2023-02-10T01:21:31;102425.69;;;-3.22;88.66
62849;BME280;48941;49.516;8.286;2023-02-10T01:23:59;102428.34;;;-3.19;88.66
62849;BME280;48941;49.516;8.286;2023-02-10T01:26:27;102426.66;;;-3.12;88.62
62849;BME280;48941;49.516;8.286;2023-02-10T01:28:55;102425.84;;;-3.08;88.25
62849;BME280;48941;49.516;8.286;2023-02-10T01:31:23;102430.19;;;-3.06;88.78
62849;BME280;48941;49.516;8.286;2023-02-10T01:33:52;102425.03;;;-3.01;88.49
62849;BME280;48941;49.516;8.286;2023-02-10T01:36:23;102421.63;;;-2.95;88.37
62849;BME280;48941;49.516;8.286;2023-02-10T01:38:51;102427.72;;;-2.93;88.35
62849;BME280;48941;49.516;8.286;2023-02-10T01:41:21;102423.38;;;-2.91;88.50
62849;BME280;48941;49.516;8.286;2023-02-10T01:43:58;102425.16;;;-2.87;88.47
62849;BME280;48941;49.516;8.286;2023-02-10T01:46:26;102417.31;;;-2.86;88.63
62849;BME280;48941;49.516;8.286;2023-02-10T01:48:55;102423.41;;;-2.84;88.91
62849;BME280;48941;49.516;8.286;2023-02-10T01:51:33;102417.38;;;-2.81;89.28
62849;BME280;48941;49.516;8.286;2023-02-10T01:54:02;102422.63;;;-2.76;89.30
62849;BME280;48941;49.516;8.286;2023-02-10T01:56:30;102426.97;;;-2.74;88.86
62849;BME280;48941;49.516;8.286;2023-02-10T01:58:59;102426.13;;;-2.73;88.32
62849;BME280;48941;49.516;8.286;2023-02-10T02:01:27;102418.31;;;-2.73;87.82
62849;BME280;48941;49.516;8.286;2023-02-10T02:03:55;102425.19;;;-2.83;87.15
62849;BME280;48941;49.516;8.286;2023-02-10T02:06:23;102430.38;;;-2.87;87.12
62849;BME280;48941;49.516;8.286;2023-02-10T02:08:52;102423.38;;;-2.93;87.50
62849;BME280;48941;49.516;8.286;2023-02-10T02:11:22;102423.28;;;-3.01;87.25
62849;BME280;48941;49.516;8.286;2023-02-10T02:13:55;102418.88;;;-3.06;87.31
62849;BME280;48941;49.516;8.286;2023-02-10T02:16:29;102423.22;;;-3.08;87.00
62849;BME280;48941;49.516;8.286;2023-02-10T02:19:03;102429.28;;;-3.11;86.77
62849;BME280;48941;49.516;8.286;2023-02-10T02:22:10;102428.31;;;-3.22;86.75
62849;BME280;48941;49.516;8.286;2023-02-10T02:24:52;102436.97;;;-3.25;87.55
62849;BME280;48941;49.516;8.286;2023-02-10T02:27:54;102442.22;;;-3.23;87.85
62849;BME280;48941;49.516;8.286;2023-02-10T02:30:41;102443.03;;;-3.29;87.90
62849;BME280;48941;49.516;8.286;2023-02-10T02:33:14;102446.41;;;-3.37;88.07
62849;BME280;48941;49.516;8.286;2023-02-10T02:35:51;102448.94;;;-3.45;88.17
62849;BME280;48941;49.516;8.286;2023-02-10T02:38:21;102448.13;;;-3.41;88.38
62849;BME280;48941;49.516;8.286;2023-02-10T02:40:49;102448.97;;;-3.41;88.32
62849;BME280;48941;49.516;8.286;2023-02-10T02:43:17;102455.91;;;-3.40;87.76
62849;BME280;48941;49.516;8.286;2023-02-10T02:45:53;102454.06;;;-3.50;87.77
62849;BME280;48941;49.516;8.286;2023-02-10T02:48:32;102463.59;;;-3.52;88.40
62849;BME280;48941;49.516;8.286;2023-02-10T02:51:05;102472.31;;;-3.51;88.22
62849;BME280;48941;49.516;8.286;2023-02-10T02:53:39;102466.19;;;-3.55;88.17
62849;BME280;48941;49.516;8.286;2023-02-10T02:56:22;102465.28;;;-3.58;88.34
62849;BME280;48941;49.516;8.286;2023-02-10T02:59:00;102463.56;;;-3.56;88.63
62849;BME280;48941;49.516;8.286;2023-02-10T03:01:34;102474.78;;;-3.62;88.88
62849;BME280;48941;49.516;8.286;2023-02-10T03:04:04;102475.66;;;-3.62;89.11
62849;BME280;48941;49.516;8.286;2023-02-10T03:06:32;102485.22;;;-3.61;89.30
62849;BME280;48941;49.516;8.286;2023-02-10T03:09:00;102478.31;;;-3.58;89.16
62849;BME280;48941;49.516;8.286;2023-02-10T03:11:28;102476.47;;;-3.66;89.22
62849;BME280;48941;49.516;8.286;2023-02-10T03:13:56;102474.78;;;-3.62;89.86
62849;BME280;48941;49.516;8.286;2023-02-10T03:16:24;102476.53;;;-3.60;89.81
62849;BME280;48941;49.516;8.286;2023-02-10T03:18:51;102475.66;;;-3.62;89.46
62849;BME280;48941;49.516;8.286;2023-02-10T03:21:20;102468.78;;;-3.56;89.61
62849;BME280;48941;49.516;8.286;2023-02-10T03:23:48;102472.31;;;-3.51;89.70
62849;BME280;48941;49.516;8.286;2023-02-10T03:26:16;102474.09;;;-3.47;89.21
62849;BME280;48941;49.516;8.286;2023-02-10T03:28:44;102473.25;;;-3.45;88.67
62849;BME280;48941;49.516;8.286;2023-02-10T03:31:11;102472.38;;;-3.45;88.32
62849;BME280;48941;49.516;8.286;2023-02-10T03:33:39;102471.53;;;-3.43;88.51
62849;BME280;48941;49.516;8.286;2023-02-10T03:36:08;102467.13;;;-3.48;88.08
62849;BME280;48941;49.516;8.286;2023-02-10T03:38:37;102480.13;;;-3.53;87.89
62849;BME280;48941;49.516;8.286;2023-02-10T03:41:05;102474.81;;;-3.57;88.17
62849;BME280;48941;49.516;8.286;2023-02-10T03:43:32;102469.53;;;-3.64;88.48
62849;BME280;48941;49.516;8.286;2023-02-10T03:46:00;102470.38;;;-3.69;88.45
62849;BME280;48941;49.516;8.286;2023-02-10T03:48:29;102472.94;;;-3.72;88.39
62849;BME280;48941;49.516;8.286;2023-02-10T03:50:57;102474.59;;;-3.77;88.63
62849;BME280;48941;49.516;8.286;2023-02-10T03:53:25;102477.16;;;-3.81;88.48
62849;BME280;48941;49.516;8.286;2023-02-10T03:55:55;102475.31;;;-3.88;88.51
62849;BME280;48941;49.516;8.286;2023-02-10T03:58:23;102474.44;;;-3.90;87.99
62849;BME280;48941;49.516;8.286;2023-02-10T04:00:51;102484.81;;;-3.93;87.78
62849;BME280;48941;49.516;8.286;2023-02-10T04:03:19;102494.31;;;-3.96;87.78
62849;BME280;48941;49.516;8.286;2023-02-10T04:05:47;102499.44;;;-4.03;87.73
62849;BME280;48941;49.516;8.286;2023-02-10T04:08:15;102492.47;;;-4.04;87.87
62849;BME280;48941;49.516;8.286;2023-02-10T04:10:43;102495.91;;;-4.06;88.06
62849;BME280;48941;49.516;8.286;2023-02-10T04:13:12;102495.84;;;-4.11;87.50
62849;BME280;48941;49.516;8.286;2023-02-10T04:15:40;102487.97;;;-4.17;87.88
62849;BME280;48941;49.516;8.286;2023-02-10T04:18:07;102496.59;;;-4.20;87.91
62849;BME280;48941;49.516;8.286;2023-02-10T04:20:35;102500.88;;;-4.22;88.47
62849;BME280;48941;49.516;8.286;2023-02-10T04:23:03;102498.25;;;-4.25;88.62
62849;BME280;48941;49.516;8.286;2023-02-10T04:25:31;102500.84;;;-4.26;88.90
62849;BME280;48941;49.516;8.286;2023-02-10T04:27:58;102499.94;;;-4.28;89.02
62849;BME280;48941;49.516;8.286;2023-02-10T04:30:28;102496.38;;;-4.33;88.93
62849;BME280;48941;49.516;8.286;2023-02-10T04:32:55;102506.13;;;-4.20;88.49
62849;BME280;48941;49.516;8.286;2023-02-10T04:35:23;102514.00;;;-4.17;88.04
62849;BME280;48941;49.516;8.286;2023-02-10T04:37:51;102511.38;;;-4.18;88.28
62849;BME280;48941;49.516;8.286;2023-02-10T04:40:19;102513.09;;;-4.17;88.55
62849;BME280;48941;49.516;8.286;2023-02-10T04:42:46;102514.81;;;-4.21;88.73
62849;BME280;48941;49.516;8.286;2023-02-10T04:45:14;102513.09;;;-4.17;88.68
62849;BME280;48941;49.516;8.286;2023-02-10T04:47:43;102527.91;;;-4.13;88.60
62849;BME280;48941;49.516;8.286;2023-02-10T04:50:11;102524.41;;;-4.15;87.77
62849;BME280;48941;49.516;8.286;2023-02-10T04:52:39;102526.13;;;-4.16;87.87
62849;BME280;48941;49.516;8.286;2023-02-10T04:55:07;102526.91;;;-4.22;87.51
62849;BME280;48941;49.516;8.286;2023-02-10T04:57:34;102517.38;;;-4.23;87.73
62849;BME280;48941;49.516;8.286;2023-02-10T05:00:03;102520.00;;;-4.21;87.65
62849;BME280;48941;49.516;8.286;2023-02-10T05:02:31;102526.84;;;-4.26;87.72
62849;BME280;48941;49.516;8.286;2023-02-10T05:05:00;102532.06;;;-4.26;88.05
62849;BME280;48941;49.516;8.286;2023-02-10T05:07:28;102538.94;;;-4.31;87.94
62849;BME280;48941;49.516;8.286;2023-02-10T05:09:56;102531.97;;;-4.32;87.74
62849;BME280;48941;49.516;8.286;2023-02-10T05:12:24;102533.66;;;-4.34;87.58
62849;BME280;48941;49.516;8.286;2023-02-10T05:14:52;102538.00;;;-4.33;88.03
62849;BME280;48941;49.516;8.286;2023-02-10T05:17:20;102540.59;;;-4.35;88.29
62849;BME280;48941;49.516;8.286;2023-02-10T05:19:47;102540.59;;;-4.35;88.48
62849;BME280;48941;49.516;8.286;2023-02-10T05:22:17;102547.63;;;-4.28;88.60
62849;BME280;48941;49.516;8.286;2023-02-10T05:24:44;102552.00;;;-4.27;88.68
62849;BME280;48941;49.516;8.286;2023-02-10T05:27:12;102552.06;;;-4.22;89.08
62849;BME280;48941;49.516;8.286;2023-02-10T05:29:40;102547.81;;;-4.17;88.95
62849;BME280;48941;49.516;8.286;2023-02-10T05:32:08;102554.00;;;-4.10;88.69
62849;BME280;48941;49.516;8.286;2023-02-10T05:34:36;102555.72;;;-4.11;88.41
62849;BME280;48941;49.516;8.286;2023-02-10T05:37:03;102550.53;;;-4.08;88.73
62849;BME280;48941;49.516;8.286;2023-02-10T05:39:32;102553.97;;;-4.12;88.43
62849;BME280;48941;49.516;8.286;2023-02-10T05:42:00;102552.25;;;-4.11;88.66
62849;BME280;48941;49.516;8.286;2023-02-10T05:44:29;102561.81;;;-4.10;88.55
62849;BME280;48941;49.516;8.286;2023-02-10T05:46:57;102564.50;;;-4.04;88.45
62849;BME280;48941;49.516;8.286;2023-02-10T05:49:25;102558.31;;;-4.11;88.34
62849;BME280;48941;49.516;8.286;2023-02-10T05:51:53;102565.28;;;-4.10;88.45
62849;BME280;48941;49.516;8.286;2023-02-10T05:54:21;102560.91;;;-4.12;88.97
62849;BME280;48941;49.516;8.286;2023-02-10T05:56:50;102571.25;;;-4.15;89.66
62849;BME280;48941;49.516;8.286;2023-02-10T05:59:18;102576.47;;;-4.17;90.32
62849;BME280;48941;49.516;8.286;2023-02-10T06:01:46;102569.44;;;-4.21;90.88
62849;BME280;48941;49.516;8.286;2023-02-10T06:04:13;102574.75;;;-4.15;91.47
62849;BME280;48941;49.516;8.286;2023-02-10T06:06:41;102574.88;;;-4.07;92.15
62849;BME280;48941;49.516;8.286;2023-02-10T06:09:09;102574.97;;;-4.00;92.12
62849;BME280;48941;49.516;8.286;2023-02-10T06:11:37;102574.28;;;-3.89;91.98
62849;BME280;48941;49.516;8.286;2023-02-10T06:14:06;102573.50;;;-3.82;92.05
62849;BME280;48941;49.516;8.286;2023-02-10T06:16:34;102578.75;;;-3.79;92.15
62849;BME280;48941;49.516;8.286;2023-02-10T06:19:02;102578.88;;;-3.71;91.94
62849;BME280;48941;49.516;8.286;2023-02-10T06:21:30;102592.84;;;-3.65;92.02
62849;BME280;48941;49.516;8.286;2023-02-10T06:23:58;102591.25;;;-3.55;91.95
62849;BME280;48941;49.516;8.286;2023-02-10T06:26:26;102592.19;;;-3.48;91.67
62849;BME280;48941;49.516;8.286;2023-02-10T06:28:54;102586.22;;;-3.41;91.64
62849;BME280;48941;49.516;8.286;2023-02-10T06:31:23;102585.34;;;-3.40;91.26
62849;BME280;48941;49.516;8.286;2023-02-10T06:33:52;102590.63;;;-3.34;92.30
62849;BME280;48941;49.516;8.286;2023-02-10T06:36:20;102582.88;;;-3.31;91.53
62849;BME280;48941;49.516;8.286;2023-02-10T06:38:48;102587.28;;;-3.24;91.22
62849;BME280;48941;49.516;8.286;2023-02-10T06:41:15;102579.47;;;-3.24;90.86
62849;BME280;48941;49.516;8.286;2023-02-10T06:43:43;102581.25;;;-3.20;90.87
62849;BME280;48941;49.516;8.286;2023-02-10T06:46:11;102583.94;;;-3.15;90.85
62849;BME280;48941;49.516;8.286;2023-02-10T06:48:43;102586.56;;;-3.10;90.68
62849;BME280;48941;49.516;8.286;2023-02-10T06:51:10;102590.06;;;-3.10;90.59
62849;BME280;48941;49.516;8.286;2023-02-10T06:53:38;102594.44;;;-3.06;90.35
62849;BME280;48941;49.516;8.286;2023-02-10T06:56:06;102604.03;;;-3.05;90.29
62849;BME280;48941;49.516;8.286;2023-02-10T06:58:34;102603.16;;;-3.05;90.18
62849;BME280;48941;49.516;8.286;2023-02-10T07:01:06;102603.13;;;-3.08;90.38
62849;BME280;48941;49.516;8.286;2023-02-10T07:03:34;102606.63;;;-3.06;89.97
62849;BME280;48941;49.516;8.286;2023-02-10T07:06:04;102603.13;;;-3.07;89.76
62849;BME280;48941;49.516;8.286;2023-02-10T07:08:32;102603.13;;;-3.08;89.40
62849;BME280;48941;49.516;8.286;2023-02-10T07:11:00;102606.59;;;-3.08;89.57
62849;BME280;48941;49.516;8.286;2023-02-10T07:13:28;102618.72;;;-3.11;89.92
62849;BME280;48941;49.516;8.286;2023-02-10T07:15:56;102606.63;;;-3.05;90.18
62849;BME280;48941;49.516;8.286;2023-02-10T07:18:24;102610.16;;;-3.01;90.10
62849;BME280;48941;49.516;8.286;2023-02-10T07:20:54;102607.66;;;-2.93;89.99
62849;BME280;48941;49.516;8.286;2023-02-10T07:23:23;102606.78;;;-2.92;89.99
62849;BME280;48941;49.516;8.286;2023-02-10T07:26:03;102606.00;;;-2.85;90.00
62849;BME280;48941;49.516;8.286;2023-02-10T07:28:32;102599.06;;;-2.80;89.85
62849;BME280;48941;49.516;8.286;2023-02-10T07:31:00;102603.50;;;-2.74;89.79
62849;BME280;48941;49.516;8.286;2023-02-10T07:33:28;102601.78;;;-2.71;89.61
62849;BME280;48941;49.516;8.286;2023-02-10T07:35:58;102602.69;;;-2.66;89.57
62849;BME280;48941;49.516;8.286;2023-02-10T07:38:28;102604.56;;;-2.55;89.51
62849;BME280;48941;49.516;8.286;2023-02-10T07:40:57;102599.44;;;-2.45;89.19
62849;BME280;48941;49.516;8.286;2023-02-10T07:43:24;102602.97;;;-2.38;89.06
62849;BME280;48941;49.516;8.286;2023-02-10T07:45:52;102601.31;;;-2.28;88.93
62849;BME280;48941;49.516;8.286;2023-02-10T07:48:20;102600.53;;;-2.18;88.91
62849;BME280;48941;49.516;8.286;2023-02-10T07:50:48;102600.59;;;-2.10;88.89
62849;BME280;48941;49.516;8.286;2023-02-10T07:53:16;102605.84;;;-2.04;88.65
62849;BME280;48941;49.516;8.286;2023-02-10T07:55:45;102601.59;;;-1.93;88.71
62849;BME280;48941;49.516;8.286;2023-02-10T07:58:14;102610.28;;;-1.92;88.35
62849;BME280;48941;49.516;8.286;2023-02-10T08:00:42;102606.91;;;-1.84;88.29
62849;BME280;48941;49.516;8.286;2023-02-10T08:03:12;102604.31;;;-1.76;87.90
62849;BME280;48941;49.516;8.286;2023-02-10T08:05:39;102607.84;;;-1.69;87.81
62849;BME280;48941;49.516;8.286;2023-02-10T08:08:08;102597.47;;;-1.54;87.71
62849;BME280;48941;49.516;8.286;2023-02-10T08:10:39;102599.31;;;-1.39;86.78
62849;BME280;48941;49.516;8.286;2023-02-10T08:13:08;102583.66;;;-1.27;86.13
62849;BME280;48941;49.516;8.286;2023-02-10T08:15:36;102593.28;;;-1.21;85.90
62849;BME280;48941;49.516;8.286;2023-02-10T08:18:04;102588.94;;;-1.13;85.80
62849;BME280;48941;49.516;8.286;2023-02-10T08:20:31;102597.69;;;-1.05;85.58
62849;BME280;48941;49.516;8.286;2023-02-10T08:22:59;102595.97;;;-0.99;84.96
62849;BME280;48941;49.516;8.286;2023-02-10T08:25:27;102598.59;;;-0.89;84.91
62849;BME280;48941;49.516;8.286;2023-02-10T08:27:55;102591.63;;;-0.88;84.88
62849;BME280;48941;49.516;8.286;2023-02-10T08:30:24;102599.50;;;-0.81;84.44
62849;BME280;48941;49.516;8.286;2023-02-10T08:32:52;102606.53;;;-0.72;83.87
62849;BME280;48941;49.516;8.286;2023-02-10T08:35:20;102612.63;;;-0.62;83.42
62849;BME280;48941;49.516;8.286;2023-02-10T08:37:48;102626.59;;;-0.57;82.85
62849;BME280;48941;49.516;8.286;2023-02-10T08:40:16;102622.25;;;-0.47;82.56
62849;BME280;48941;49.516;8.286;2023-02-10T08:42:44;102623.13;;;-0.48;82.18
62849;BME280;48941;49.516;8.286;2023-02-10T08:45:12;102625.72;;;-0.54;82.03
62849;BME280;48941;49.516;8.286;2023-02-10T08:47:41;102617.03;;;-0.47;81.95
62849;BME280;48941;49.516;8.286;2023-02-10T08:50:09;102617.00;;;-0.38;81.91
62849;BME280;48941;49.516;8.286;2023-02-10T08:52:37;102618.75;;;-0.45;81.49
62849;BME280;48941;49.516;8.286;2023-02-10T08:55:05;102623.13;;;-0.45;81.48
62849;BME280;48941;49.516;8.286;2023-02-10T08:57:33;102623.13;;;-0.50;81.98
62849;BME280;48941;49.516;8.286;2023-02-10T09:00:03;102630.09;;;-0.44;82.56
62849;BME280;48941;49.516;8.286;2023-02-10T09:02:33;102637.97;;;-0.47;82.87
62849;BME280;48941;49.516;8.286;2023-02-10T09:05:02;102637.13;;;-0.34;82.81
62849;BME280;48941;49.516;8.286;2023-02-10T09:07:36;102636.22;;;-0.28;82.20
62849;BME280;48941;49.516;8.286;2023-02-10T09:10:04;102647.59;;;-0.35;82.15
62849;BME280;48941;49.516;8.286;2023-02-10T09:12:32;102641.47;;;-0.45;82.25
62849;BME280;48941;49.516;8.286;2023-02-10T09:15:00;102636.22;;;-0.34;82.26
62849;BME280;48941;49.516;8.286;2023-02-10T09:17:28;102645.84;;;-0.23;81.63
62849;BME280;48941;49.516;8.286;2023-02-10T09:19:56;102651.13;;;-0.12;81.53
62849;BME280;48941;49.516;8.286;2023-02-10T09:22:25;102656.34;;;-0.15;81.82
62849;BME280;48941;49.516;8.286;2023-02-10T09:24:53;102660.72;;;-0.08;82.01
62849;BME280;48941;49.516;8.286;2023-02-10T09:27:21;102655.47;;;-0.05;81.99
62849;BME280;48941;49.516;8.286;2023-02-10T09:29:49;102658.97;;;-0.06;82.64
62849;BME280;48941;49.516;8.286;2023-02-10T09:32:16;102662.44;;;-0.08;82.98
62849;BME280;48941;49.516;8.286;2023-02-10T09:34:44;102651.97;;;-0.05;82.23
62849;BME280;48941;49.516;8.286;2023-02-10T09:37:12;102654.56;;;-0.02;81.91
62849;BME280;48941;49.516;8.286;2023-02-10T09:39:41;102658.09;;;-0.02;82.13
62849;BME280;48941;49.516;8.286;2023-02-10T09:42:16;102659.84;;;0.04;82.45
62849;BME280;48941;49.516;8.286;2023-02-10T09:44:52;102664.19;;;0.10;82.17
62849;BME280;48941;49.516;8.286;2023-02-10T09:47:31;102669.44;;;0.07;81.38
62849;BME280;48941;49.516;8.286;2023-02-10T09:53:09;102673.78;;;0.28;80.98
62849;BME280;48941;49.516;8.286;2023-02-10T09:55:43;102673.78;;;0.35;80.26
62849;BME280;48941;49.516;8.286;2023-02-10T09:58:21;102670.28;;;0.39;79.76
62849;BME280;48941;49.516;8.286;2023-02-10T10:00:55;102673.78;;;0.51;79.49
62849;BME280;48941;49.516;8.286;2023-02-10T10:03:26;102672.00;;;0.50;79.08
62849;BME280;48941;49.516;8.286;2023-02-10T10:06:04;102665.03;;;0.56;79.06
62849;BME280;48941;49.516;8.286;2023-02-10T10:08:38;102665.88;;;0.55;79.92
62849;BME280;48941;49.516;8.286;2023-02-10T10:11:22;102661.50;;;0.64;79.58
62849;BME280;48941;49.516;8.286;2023-02-10T10:13:51;102665.84;;;0.69;79.14
62849;BME280;48941;49.516;8.286;2023-02-10T10:16:38;102672.88;;;0.70;79.35
62849;BME280;48941;49.516;8.286;2023-02-10T10:19:18;102662.31;;;0.79;78.67
62849;BME280;48941;49.516;8.286;2023-02-10T10:21:56;102676.31;;;0.86;78.88
62849;BME280;48941;49.516;8.286;2023-02-10T10:24:42;102671.91;;;0.91;79.11
62849;BME280;48941;49.516;8.286;2023-02-10T10:27:20;102673.66;;;0.98;78.51
62849;BME280;48941;49.516;8.286;2023-02-10T10:29:53;102672.69;;;1.12;78.40
62849;BME280;48941;49.516;8.286;2023-02-10T10:32:32;102676.16;;;1.26;78.17
62849;BME280;48941;49.516;8.286;2023-02-10T10:35:05;102665.59;;;1.37;77.77
62849;BME280;48941;49.516;8.286;2023-02-10T10:37:40;102671.66;;;1.47;77.39
62849;BME280;48941;49.516;8.286;2023-02-10T10:40:14;102661.97;;;1.53;76.58
62849;BME280;48941;49.516;8.286;2023-02-10T10:42:46;102664.66;;;1.52;76.30
62849;BME280;48941;49.516;8.286;2023-02-10T10:45:17;102662.84;;;1.60;76.25
62849;BME280;48941;49.516;8.286;2023-02-10T10:47:48;102661.94;;;1.59;76.07
62849;BME280;48941;49.516;8.286;2023-02-10T10:50:18;102650.53;;;1.64;76.14
62849;BME280;48941;49.516;8.286;2023-02-10T10:52:51;102643.50;;;1.69;76.29
62849;BME280;48941;49.516;8.286;2023-02-10T10:55:22;102652.19;;;1.78;76.03
62849;BME280;48941;49.516;8.286;2023-02-10T10:57:55;102655.63;;;1.85;76.05
62849;BME280;48941;49.516;8.286;2023-02-10T11:00:24;102657.34;;;1.91;76.23
62849;BME280;48941;49.516;8.286;2023-02-10T11:02:57;102657.25;;;2.03;75.52
62849;BME280;48941;49.516;8.286;2023-02-10T11:05:29;102660.66;;;2.16;75.33
62849;BME280;48941;49.516;8.286;2023-02-10T11:07:58;102660.56;;;2.24;74.26
62849;BME280;48941;49.516;8.286;2023-02-10T11:10:31;102660.34;;;2.48;73.90
62849;BME280;48941;49.516;8.286;2023-02-10T11:13:02;102649.56;;;2.71;72.64
62849;BME280;48941;49.516;8.286;2023-02-10T11:15:37;102656.44;;;2.86;71.80
62849;BME280;48941;49.516;8.286;2023-02-10T11:18:07;102648.22;;;3.09;69.83
62849;BME280;48941;49.516;8.286;2023-02-10T11:20:52;102632.22;;;3.26;68.93
62849;BME280;48941;49.516;8.286;2023-02-10T11:23:20;102636.38;;;3.43;68.45
62849;BME280;48941;49.516;8.286;2023-02-10T11:25:56;102631.00;;;3.49;68.00
62849;BME280;48941;49.516;8.286;2023-02-10T11:28:28;102625.44;;;3.70;66.36
62849;BME280;48941;49.516;8.286;2023-02-10T11:30:58;102624.28;;;3.85;65.22
62849;BME280;48941;49.516;8.286;2023-02-10T11:33:29;102618.50;;;4.17;64.33
62849;BME280;48941;49.516;8.286;2023-02-10T11:36:02;102619.63;;;4.49;63.69
62849;BME280;48941;49.516;8.286;2023-02-10T11:38:31;102616.38;;;4.82;62.81
62849;BME280;48941;49.516;8.286;2023-02-10T11:41:01;102617.50;;;5.12;61.89
62849;BME280;48941;49.516;8.286;2023-02-10T11:43:37;102615.81;;;5.47;60.56
62849;BME280;48941;49.516;8.286;2023-02-10T11:46:17;102621.19;;;5.44;58.91
62849;BME280;48941;49.516;8.286;2023-02-10T11:48:52;102618.19;;;5.22;59.62
62849;BME280;48941;49.516;8.286;2023-02-10T11:51:20;102615.41;;;5.28;59.88
62849;BME280;48941;49.516;8.286;2023-02-10T11:53:48;102618.38;;;5.51;59.67
62849;BME280;48941;49.516;8.286;2023-02-10T11:56:20;102623.91;;;5.78;57.46
62849;BME280;48941;49.516;8.286;2023-02-10T11:59:19;102613.09;;;6.23;56.49
62849;BME280;48941;49.516;8.286;2023-02-10T12:01:53;102615.28;;;6.40;55.71
62849;BME280;48941;49.516;8.286;2023-02-10T12:04:43;102613.50;;;6.73;54.40
62849;BME280;48941;49.516;8.286;2023-02-10T12:07:20;102601.09;;;7.05;53.52
62849;BME280;48941;49.516;8.286;2023-02-10T12:09:56;102594.97;;;7.31;52.54
62849;BME280;48941;49.516;8.286;2023-02-10T12:12:32;102597.25;;;7.70;51.76
62849;BME280;48941;49.516;8.286;2023-02-10T12:15:13;102601.25;;;7.84;51.04
62849;BME280;48941;49.516;8.286;2023-02-10T12:17:51;102605.91;;;8.02;50.08
62849;BME280;48941;49.516;8.286;2023-02-10T12:20:33;102612.72;;;7.84;50.50
62849;BME280;48941;49.516;8.286;2023-02-10T12:23:15;102605.44;;;7.63;50.78
62849;BME280;48941;49.516;8.286;2023-02-10T12:25:53;102598.50;;;7.58;51.54
62849;BME280;48941;49.516;8.286;2023-02-10T12:28:33;102598.63;;;7.82;51.06
62849;BME280;48941;49.516;8.286;2023-02-10T12:31:20;102601.53;;;8.01;51.34
62849;BME280;48941;49.516;8.286;2023-02-10T12:36:54;102588.88;;;8.60;48.89
62849;BME280;48941;49.516;8.286;2023-02-10T12:39:30;102585.63;;;8.98;48.55
62849;BME280;48941;49.516;8.286;2023-02-10T12:42:11;102580.84;;;9.30;47.83
62849;BME280;48941;49.516;8.286;2023-02-10T12:44:51;102572.44;;;9.19;47.57
62849;BME280;48941;49.516;8.286;2023-02-10T12:47:33;102575.41;;;9.11;48.26
62849;BME280;48941;49.516;8.286;2023-02-10T12:50:22;102567.63;;;9.07;47.65
62849;BME280;48941;49.516;8.286;2023-02-10T12:52:54;102569.03;;;9.37;47.74
62849;BME280;48941;49.516;8.286;2023-02-10T12:55:25;102567.53;;;9.52;46.63
62849;BME280;48941;49.516;8.286;2023-02-10T12:57:58;102570.91;;;9.78;44.46
62849;BME280;48941;49.516;8.286;2023-02-10T13:00:32;102563.09;;;9.75;44.88
62849;BME280;48941;49.516;8.286;2023-02-10T13:03:07;102564.53;;;9.82;44.13
62849;BME280;48941;49.516;8.286;2023-02-10T13:05:41;102565.50;;;10.02;43.64
62849;BME280;48941;49.516;8.286;2023-02-10T13:08:14;102559.16;;;9.84;44.30
62849;BME280;48941;49.516;8.286;2023-02-10T13:10:44;102559.94;;;9.86;44.49
62849;BME280;48941;49.516;8.286;2023-02-10T13:13:15;102555.00;;;9.99;44.16
62849;BME280;48941;49.516;8.286;2023-02-10T13:15:49;102547.25;;;10.13;44.15